Weather reports worldwide

Advertisment
Bealach, United Kingdom (3039): temperature & dewpoint: 16.02.2019 21:00:00 - 22.02.2019 21:00:00 (GMT)Bealach, United Kingdom (3039): wind speed & gusts: 16.02.2019 21:00:00 - 22.02.2019 21:00:00 (GMT)Bealach, United Kingdom (3039): wind direction: 16.02.2019 21:00:00 - 22.02.2019 21:00:00 (GMT)
Date & Time tt [°C] td [°C] ff [km/h] ff [kn] fx [km/h] fx [kn] dd
22.02.2019 21:00:00 9,5 1,9 89 48 144 78 SSE
22.02.2019 20:00:00 10,0 2,0 57 31 135 73 SSE
22.02.2019 19:00:00 10,0 2,7 55 30 126 68 SSE
22.02.2019 18:00:00 10,0 2,9 52 28 120 65 SSE
22.02.2019 17:00:00 9,0 3,7 39 21 107 58 S
22.02.2019 16:00:00 8,7 5,7 35 19 87 47 S
22.02.2019 15:00:00 8,1 7,5 34 18 80 43 S
22.02.2019 14:00:00 7,7 6,5 41 22 80 43 S
22.02.2019 13:00:00 7,1 6,5 41 22 96 52 S
22.02.2019 12:00:00 7,4 6,5 57 31 122 66 S
22.02.2019 11:00:00 7,4 6,5 61 33 104 56 S
22.02.2019 10:00:00 7,1 6,4 57 31 87 47 S
22.02.2019 09:00:00 6,7 6,4 59 32 85 46 S
22.02.2019 08:00:00 6,7 6,1 44 24 81 44 S
22.02.2019 07:00:00 6,9 6,1 28 15 85 46 S
22.02.2019 06:00:00 7,7 5,2 39 21 94 51 S
22.02.2019 05:00:00 7,7 5,0 63 34 106 57 SSE
22.02.2019 04:00:00 7,5 3,7 63 34 104 56 SSE
22.02.2019 03:00:00 6,2 2,8 39 21 93 50 SSE
22.02.2019 02:00:00 6,6 1,7 50 27 80 43 SSE
22.02.2019 01:00:00 6,9 0,4 31 17 80 43 SSE
22.02.2019 00:00:00 7,5 1,0 55 30 74 40 SSE
21.02.2019 23:00:00 6,8 2,3 41 22 54 29 SSE
21.02.2019 22:00:00 7,1 3,2 21 11 - - SSE
21.02.2019 21:00:00 7,8 7,8 8 4 - - E
21.02.2019 20:00:00 8,1 8,1 13 7 55 30 SE
21.02.2019 19:00:00 8,3 8,3 35 19 54 29 SSE
21.02.2019 18:00:00 8,2 8,2 35 19 55 30 S
21.02.2019 17:00:00 8,1 8,1 35 19 61 33 S
21.02.2019 16:00:00 7,6 7,6 29 16 72 39 S
21.02.2019 15:00:00 7,6 7,6 29 16 57 31 S
21.02.2019 14:00:00 7,7 7,7 29 16 61 33 SSE
21.02.2019 13:00:00 7,5 7,5 29 16 65 35 S
21.02.2019 12:00:00 7,5 7,5 31 17 61 33 S
21.02.2019 11:00:00 7,5 7,5 21 11 74 40 S
21.02.2019 10:00:00 7,7 7,7 59 32 80 43 S
21.02.2019 09:00:00 7,8 7,8 59 32 74 40 S
21.02.2019 08:00:00 7,6 7,6 59 32 76 41 S
21.02.2019 07:00:00 7,3 7,3 52 28 80 43 S
21.02.2019 06:00:00 7,2 7,2 63 34 81 44 S
21.02.2019 05:00:00 7,2 7,2 26 14 67 36 S
21.02.2019 04:00:00 6,9 6,9 57 31 81 44 S
21.02.2019 03:00:00 6,6 6,6 61 33 81 44 S
21.02.2019 02:00:00 5,9 5,9 41 22 70 38 S
21.02.2019 01:00:00 5,5 5,5 57 31 67 36 S
21.02.2019 00:00:00 4,5 4,5 54 29 72 39 SSW
20.02.2019 23:00:00 4,2 4,2 57 31 72 39 SSW
20.02.2019 22:00:00 4,0 4,0 59 32 76 41 SSW
20.02.2019 21:00:00 3,9 3,9 59 32 74 40 SSW
20.02.2019 20:00:00 4,0 4,0 52 28 63 34 SSW
20.02.2019 19:00:00 3,9 3,9 50 27 68 37 SW
20.02.2019 18:00:00 4,0 4,0 55 30 68 37 SSW
20.02.2019 17:00:00 4,0 4,0 41 22 55 30 SW
20.02.2019 16:00:00 4,4 4,4 50 27 72 39 SW
20.02.2019 15:00:00 5,0 5,0 59 32 85 46 SSW
20.02.2019 14:00:00 5,6 5,6 76 41 98 53 S
20.02.2019 13:00:00 5,7 5,7 70 38 106 57 S
20.02.2019 12:00:00 5,7 5,7 67 36 104 56 S
20.02.2019 11:00:00 5,6 5,6 63 34 94 51 S
20.02.2019 10:00:00 5,6 5,6 57 31 100 54 S
20.02.2019 09:00:00 5,5 5,5 67 36 104 56 S
20.02.2019 08:00:00 5,5 5,5 67 36 106 57 S
20.02.2019 07:00:00 5,5 5,5 72 39 106 57 S
20.02.2019 06:00:00 5,7 5,7 83 45 104 56 S
20.02.2019 05:00:00 5,7 5,7 83 45 102 55 SSW
20.02.2019 04:00:00 5,5 5,5 81 44 106 57 SSW
20.02.2019 03:00:00 5,3 5,3 80 43 106 57 S
20.02.2019 02:00:00 5,2 5,2 70 38 93 50 S
20.02.2019 01:00:00 4,5 4,5 34 18 68 37 S
20.02.2019 00:00:00 3,8 3,8 41 22 65 35 S
19.02.2019 23:00:00 2,5 2,5 34 18 54 29 SSE
19.02.2019 22:00:00 1,3 1,3 29 16 63 34 SE
19.02.2019 21:00:00 1,0 1,0 21 11 - - SE
19.02.2019 20:00:00 0,7 0,7 11 6 - - N
19.02.2019 19:00:00 0,7 0,7 13 7 52 28 NE
19.02.2019 18:00:00 0,8 0,8 11 6 48 26 SE
19.02.2019 17:00:00 1,1 1,1 22 12 67 36 SSE
19.02.2019 16:00:00 0,9 0,9 44 24 61 33 SSE
19.02.2019 15:00:00 1,2 1,2 28 15 57 31 SSE
19.02.2019 14:00:00 1,5 1,5 24 13 54 29 S
19.02.2019 13:00:00 1,3 1,3 22 12 - - SSW
19.02.2019 12:00:00 1,5 1,5 26 14 - - SSW
19.02.2019 11:00:00 1,5 1,5 26 14 - - SSW
19.02.2019 10:00:00 1,4 1,4 24 13 - - SSW
19.02.2019 09:00:00 1,2 1,2 18 10 - - SSW
19.02.2019 08:00:00 0,9 0,9 16 9 - - WSW
19.02.2019 07:00:00 0,9 0,9 26 14 - - W
19.02.2019 06:00:00 0,9 0,9 26 14 - - W
19.02.2019 05:00:00 1,0 1,0 31 17 - - W
19.02.2019 04:00:00 1,1 1,1 31 17 - - W
19.02.2019 03:00:00 0,1 0,1 34 18 46 25 W
19.02.2019 02:00:00 0,4 0,4 29 16 - - W
19.02.2019 01:00:00 0,9 0,9 34 18 - - WNW
19.02.2019 00:00:00 0,9 0,9 39 21 54 29 WNW
18.02.2019 23:00:00 0,6 0,6 48 26 67 36 WNW
18.02.2019 22:00:00 1,4 1,4 48 26 61 33 WNW
18.02.2019 21:00:00 1,6 1,6 46 25 67 36 WNW
18.02.2019 20:00:00 1,9 1,9 54 29 72 39 WNW
18.02.2019 19:00:00 1,8 1,8 48 26 63 34 W
18.02.2019 18:00:00 1,5 1,5 42 23 59 32 W
18.02.2019 17:00:00 1,4 1,4 52 28 68 37 W
18.02.2019 16:00:00 1,2 1,2 44 24 67 36 WSW
18.02.2019 15:00:00 1,2 1,2 41 22 54 29 WSW
18.02.2019 14:00:00 1,5 1,5 44 24 63 34 WSW
18.02.2019 13:00:00 1,2 1,2 41 22 59 32 SW
18.02.2019 12:00:00 1,7 1,7 54 29 102 55 SW
18.02.2019 11:00:00 1,5 1,5 59 32 109 59 SSW
18.02.2019 10:00:00 1,1 1,1 55 30 107 58 S
18.02.2019 09:00:00 1,0 1,0 34 18 107 58 S
18.02.2019 08:00:00 1,0 1,0 39 21 94 51 S
18.02.2019 07:00:00 0,8 0,8 39 21 85 46 S
18.02.2019 06:00:00 0,7 0,7 18 10 87 47 S
18.02.2019 05:00:00 0,8 0,8 42 23 111 60 S
18.02.2019 04:00:00 1,3 1,3 67 36 107 58 SSW
18.02.2019 03:00:00 1,7 1,7 54 29 115 62 S
18.02.2019 02:00:00 1,9 1,9 54 29 107 58 S
18.02.2019 01:00:00 1,7 1,7 35 19 96 52 S
18.02.2019 00:00:00 2,6 2,6 46 25 119 64 SSE
17.02.2019 23:00:00 2,7 2,7 34 18 98 53 SSE
17.02.2019 22:00:00 2,7 2,7 50 27 109 59 SSE
17.02.2019 21:00:00 3,3 3,3 42 23 109 59 SSE
17.02.2019 20:00:00 3,3 3,3 50 27 87 47 SSE
17.02.2019 19:00:00 2,9 2,9 26 14 89 48 S
17.02.2019 18:00:00 2,4 2,4 18 10 70 38 S
17.02.2019 17:00:00 1,8 1,8 29 16 80 43 S
17.02.2019 16:00:00 1,8 1,8 42 23 89 48 S
17.02.2019 15:00:00 1,7 1,7 48 26 89 48 S
17.02.2019 14:00:00 1,0 1,0 72 39 111 60 S
17.02.2019 13:00:00 4,0 4,0 57 31 107 58 S
17.02.2019 12:00:00 4,3 4,3 39 21 94 51 S
17.02.2019 11:00:00 4,7 4,7 37 20 107 58 SSE
17.02.2019 10:00:00 4,8 4,8 35 19 104 56 SSE
17.02.2019 09:00:00 4,7 4,7 52 28 117 63 SSE
17.02.2019 08:00:00 4,6 4,6 63 34 104 56 SSE
17.02.2019 07:00:00 4,6 4,6 55 30 100 54 SSE
17.02.2019 06:00:00 4,9 4,9 48 26 81 44 SSE
17.02.2019 05:00:00 5,1 5,1 44 24 100 54 SSE
17.02.2019 04:00:00 5,1 5,1 37 20 119 64 SSE
17.02.2019 03:00:00 5,1 3,9 37 20 104 56 SSE
17.02.2019 02:00:00 5,0 5,0 59 32 124 67 SSE
17.02.2019 01:00:00 5,0 2,8 48 26 104 56 SSE
17.02.2019 00:00:00 4,5 2,9 57 31 91 49 SSE
16.02.2019 23:00:00 4,1 4,1 54 29 74 40 SSE
16.02.2019 22:00:00 3,9 3,9 42 23 74 40 SSE
16.02.2019 21:00:00 3,8 3,8 54 29 87 47 S

tt = temperature
td = dewpoint
ff = wind speed
fx = gusts
dd = wind direction

Next stations